createdAt,value
2023-02-13T00:00:12.636Z,95352.97
2023-02-13T00:01:09.206Z,95348.28
2023-02-13T00:02:05.850Z,95306.56
2023-02-13T00:03:02.943Z,95354.09
2023-02-13T00:04:00.434Z,95365.78
2023-02-13T00:04:57.059Z,95347.16
2023-02-13T00:05:53.656Z,95360.03
2023-02-13T00:06:50.232Z,95357.50
2023-02-13T00:07:47.011Z,95354.09
2023-02-13T00:08:43.653Z,95355.34
2023-02-13T00:09:40.915Z,95353.09
2023-02-13T00:10:37.713Z,95357.50
2023-02-13T00:11:34.262Z,95353.75
2023-02-13T00:12:30.997Z,95355.13
2023-02-13T00:13:27.777Z,95356.94
2023-02-13T00:14:24.366Z,95187.03
2023-02-13T00:15:21.005Z,95364.44
2023-02-13T00:16:17.739Z,95360.56
2023-02-13T00:17:14.334Z,95349.56
2023-02-13T00:18:11.286Z,95360.56
2023-02-13T00:19:07.925Z,95349.19
2023-02-13T00:20:05.686Z,95320.09
2023-02-13T00:21:08.526Z,95352.28
2023-02-13T00:22:05.115Z,95354.44
2023-02-13T00:23:02.076Z,95360.25
2023-02-13T00:23:58.676Z,95365.13
2023-02-13T00:24:55.256Z,95364.91
2023-02-13T00:25:51.862Z,95369.44
2023-02-13T00:26:48.431Z,95347.59
2023-02-13T00:27:45.023Z,95364.88
2023-02-13T00:28:41.734Z,95366.91
2023-02-13T00:29:38.558Z,95352.38
2023-02-13T00:30:35.145Z,95365.00
2023-02-13T00:31:31.802Z,95368.09
2023-02-13T00:32:28.539Z,95366.38
2023-02-13T00:33:25.134Z,95362.38
2023-02-13T00:34:21.706Z,95369.22
2023-02-13T00:35:18.430Z,95372.16
2023-02-13T00:36:20.843Z,95363.19
2023-02-13T00:37:17.419Z,95363.50
2023-02-13T00:38:13.989Z,95376.16
2023-02-13T00:39:12.197Z,95372.94
2023-02-13T00:40:09.325Z,95371.84
2023-02-13T00:41:06.043Z,95375.81
2023-02-13T00:42:02.629Z,95375.25
2023-02-13T00:42:59.248Z,95375.47
2023-02-13T00:43:55.853Z,95371.50
2023-02-13T00:44:54.020Z,95393.78
2023-02-13T00:45:50.583Z,95375.94
2023-02-13T00:46:47.244Z,95367.50
2023-02-13T00:47:43.925Z,95371.13
2023-02-13T00:48:40.942Z,95360.94
2023-02-13T00:49:37.533Z,95369.91
2023-02-13T00:50:34.117Z,95305.66
2023-02-13T00:51:31.016Z,95380.00
2023-02-13T00:52:27.584Z,95374.13
2023-02-13T00:53:25.979Z,95378.53
2023-02-13T00:54:22.586Z,95376.94
2023-02-13T00:55:19.224Z,95379.47
2023-02-13T00:56:16.802Z,95379.34
2023-02-13T00:57:13.571Z,95316.91
2023-02-13T00:58:10.373Z,95382.75
2023-02-13T00:59:07.045Z,95378.78
2023-02-13T01:00:03.914Z,95375.34
2023-02-13T01:01:00.623Z,95381.38
2023-02-13T01:01:57.382Z,95382.97
2023-02-13T01:02:54.106Z,95277.47
2023-02-13T01:03:50.745Z,95328.75
2023-02-13T01:04:47.357Z,95322.84
2023-02-13T01:05:44.984Z,95284.63
2023-02-13T01:06:41.729Z,95201.94
2023-02-13T01:07:38.321Z,95378.19
2023-02-13T01:08:35.426Z,95379.25
2023-02-13T01:09:32.114Z,95340.69
2023-02-13T01:10:28.768Z,95372.75
2023-02-13T01:11:25.505Z,95313.28
2023-02-13T01:12:22.207Z,95364.09
2023-02-13T01:13:18.832Z,95378.34
2023-02-13T01:14:16.876Z,95380.94
2023-02-13T01:15:13.476Z,95371.28
2023-02-13T01:16:10.211Z,95374.34
2023-02-13T01:17:06.840Z,95376.84
2023-02-13T01:18:04.264Z,95386.97
2023-02-13T01:19:00.848Z,95385.13
2023-02-13T01:19:57.454Z,95381.59
2023-02-13T01:21:02.677Z,95365.00
2023-02-13T01:21:59.249Z,95341.88
2023-02-13T01:22:57.480Z,95378.91
2023-02-13T01:23:54.119Z,95383.47
2023-02-13T01:24:50.844Z,95382.03
2023-02-13T01:25:47.418Z,95382.16
2023-02-13T01:26:44.246Z,95381.25
2023-02-13T01:27:40.952Z,95386.38
2023-02-13T01:28:37.665Z,95379.84
2023-02-13T01:29:34.665Z,95385.19
2023-02-13T01:30:31.279Z,95373.00
2023-02-13T01:31:28.018Z,95341.31
2023-02-13T01:32:24.721Z,95385.53
2023-02-13T01:33:22.669Z,95334.88
2023-02-13T01:34:19.281Z,95368.09
2023-02-13T01:35:16.604Z,95388.75
2023-02-13T01:36:16.830Z,95387.63
2023-02-13T01:37:14.100Z,95386.84
2023-02-13T01:38:10.756Z,95395.38
2023-02-13T01:39:07.526Z,95390.81
2023-02-13T01:40:04.378Z,95375.25
2023-02-13T01:41:01.014Z,95385.38
2023-02-13T01:41:57.651Z,95382.88
2023-02-13T01:42:54.262Z,95384.13
2023-02-13T01:43:53.146Z,95385.38
2023-02-13T01:44:55.275Z,95390.59
2023-02-13T01:45:56.461Z,95386.88
2023-02-13T01:46:53.227Z,95388.72
2023-02-13T01:47:53.095Z,95383.41
2023-02-13T01:48:51.385Z,95387.19
2023-02-13T01:49:49.539Z,95404.91
2023-02-13T01:50:55.528Z,95392.84
2023-02-13T01:51:56.208Z,95361.03
2023-02-13T01:52:59.917Z,95340.81
2023-02-13T01:54:02.835Z,95338.31
2023-02-13T01:54:59.490Z,95395.16
2023-02-13T01:56:07.202Z,95390.59
2023-02-13T01:57:09.517Z,95388.22
2023-02-13T01:58:09.874Z,95385.94
2023-02-13T01:59:13.361Z,95381.69
2023-02-13T02:00:16.965Z,95301.69
2023-02-13T02:01:13.876Z,95394.78
2023-02-13T02:02:10.918Z,95385.13
2023-02-13T02:03:14.130Z,95375.94
2023-02-13T02:04:19.230Z,95318.72
2023-02-13T02:05:18.405Z,95366.59
2023-02-13T02:06:24.236Z,95354.78
2023-02-13T02:07:24.950Z,95327.16
2023-02-13T02:08:21.859Z,95378.34
2023-02-13T02:09:25.972Z,95386.84
2023-02-13T02:10:22.962Z,95352.50
2023-02-13T02:11:30.294Z,95389.69
2023-02-13T02:12:34.072Z,95385.50
2023-02-13T02:13:30.680Z,95389.13
2023-02-13T02:14:27.891Z,95398.09
2023-02-13T02:15:25.168Z,95394.03
2023-02-13T02:16:21.846Z,95391.75
2023-02-13T02:17:21.678Z,95394.69
2023-02-13T02:18:23.963Z,95397.66
2023-02-13T02:19:56.482Z,95391.16
2023-02-13T02:21:10.916Z,95394.03
2023-02-13T02:22:39.603Z,95397.44
2023-02-13T02:24:08.159Z,95292.13
2023-02-13T02:25:16.799Z,95399.69
2023-02-13T02:26:35.345Z,95403.97
2023-02-13T02:27:51.816Z,95394.78
2023-02-13T02:29:09.523Z,95398.44
2023-02-13T02:30:38.772Z,95405.50
2023-02-13T02:32:03.477Z,95402.19
2023-02-13T02:33:27.896Z,95404.09
2023-02-13T02:34:46.599Z,95400.13
2023-02-13T02:35:46.237Z,95404.44
2023-02-13T02:37:17.356Z,95386.44
2023-02-13T02:38:45.704Z,95410.91
2023-02-13T02:39:57.569Z,95406.03
2023-02-13T02:41:04.993Z,95408.75
2023-02-13T02:42:23.336Z,95414.81
2023-02-13T02:43:47.985Z,95352.00
2023-02-13T02:44:53.674Z,95417.41
2023-02-13T02:46:02.222Z,95414.09
2023-02-13T02:47:43.097Z,95411.91
2023-02-13T02:49:05.670Z,95422.88
2023-02-13T02:50:24.999Z,95417.53
2023-02-13T02:51:32.889Z,95410.63
2023-02-13T02:52:46.449Z,95420.28
2023-02-13T02:54:26.518Z,95420.50
2023-02-13T02:55:50.402Z,95417.19
2023-02-13T02:56:49.020Z,95422.31
2023-02-13T02:58:21.936Z,95328.25
2023-02-13T02:59:40.568Z,95377.97
2023-02-13T03:01:01.608Z,95357.59
2023-02-13T03:02:17.745Z,95411.81
2023-02-13T03:03:40.234Z,95415.00
2023-02-13T03:05:04.593Z,95413.19
2023-02-13T03:06:14.090Z,95411.00
2023-02-13T03:07:14.705Z,95413.75
2023-02-13T03:08:12.112Z,95326.16
2023-02-13T03:09:33.368Z,95401.69
2023-02-13T03:10:53.874Z,95410.34
2023-02-13T03:12:12.955Z,95407.47
2023-02-13T03:13:33.397Z,95415.91
2023-02-13T03:14:30.050Z,95329.78
2023-02-13T03:15:27.424Z,95418.50
2023-02-13T03:16:43.880Z,95358.94
2023-02-13T03:17:59.595Z,95412.06
2023-02-13T03:19:16.689Z,95421.59
2023-02-13T03:20:41.090Z,95420.03
2023-02-13T03:22:13.163Z,95420.03
2023-02-13T03:23:17.376Z,95420.44
2023-02-13T03:24:25.938Z,95422.09
2023-02-13T03:25:38.826Z,95418.59
2023-02-13T03:26:50.381Z,95415.53
2023-02-13T03:28:12.202Z,95419.47
2023-02-13T03:29:36.965Z,95396.03
2023-02-13T03:30:51.815Z,95414.56
2023-02-13T03:32:25.855Z,95412.75
2023-02-13T03:33:42.815Z,95400.19
2023-02-13T03:35:05.749Z,95412.63
2023-02-13T03:36:31.761Z,95410.09
2023-02-13T03:37:54.595Z,95412.63
2023-02-13T03:38:56.928Z,95406.94
2023-02-13T03:40:05.160Z,95417.59
2023-02-13T03:41:19.614Z,95386.03
2023-02-13T03:42:27.314Z,95416.47
2023-02-13T03:43:27.773Z,95416.47
2023-02-13T03:44:40.986Z,95415.72
2023-02-13T03:45:53.829Z,95412.19
2023-02-13T03:46:53.549Z,95433.09
2023-02-13T03:47:55.194Z,95414.28
2023-02-13T03:49:10.600Z,95422.88
2023-02-13T03:50:09.930Z,95435.34
2023-02-13T03:51:10.014Z,95421.66
2023-02-13T03:52:19.159Z,95405.81
2023-02-13T03:53:16.520Z,95424.41
2023-02-13T03:54:21.986Z,95383.25
2023-02-13T03:55:48.831Z,95424.28
2023-02-13T03:57:09.298Z,95427.13
2023-02-13T03:58:29.852Z,95373.59
2023-02-13T03:59:33.894Z,95430.47
2023-02-13T04:00:40.018Z,95435.09
2023-02-13T04:01:38.335Z,95430.59
2023-02-13T04:02:46.967Z,95433.94
2023-02-13T04:03:52.624Z,95432.19
2023-02-13T04:04:57.931Z,95432.63
2023-02-13T04:06:08.834Z,95439.03
2023-02-13T04:07:10.760Z,95389.81
2023-02-13T04:08:07.500Z,95417.19
2023-02-13T04:09:04.285Z,95368.91
2023-02-13T04:10:10.394Z,95435.81
2023-02-13T04:11:25.483Z,95425.59
2023-02-13T04:12:43.393Z,95427.88
2023-02-13T04:13:47.652Z,95426.63
2023-02-13T04:14:53.261Z,95424.81
2023-02-13T04:15:58.458Z,95433.28
2023-02-13T04:17:05.807Z,95443.50
2023-02-13T04:18:10.869Z,95440.22
2023-02-13T04:19:08.838Z,95432.00
2023-02-13T04:20:07.171Z,95423.31
2023-02-13T04:21:05.450Z,95429.72
2023-02-13T04:22:03.145Z,95428.06
2023-02-13T04:23:08.594Z,95428.34
2023-02-13T04:24:05.584Z,95413.56
2023-02-13T04:25:02.202Z,95422.53
2023-02-13T04:26:02.480Z,95413.91
2023-02-13T04:26:59.466Z,95425.31
2023-02-13T04:27:56.065Z,95389.13
2023-02-13T04:28:52.684Z,95424.56
2023-02-13T04:29:49.244Z,95425.34
2023-02-13T04:30:45.910Z,95394.78
2023-02-13T04:31:42.707Z,95425.75
2023-02-13T04:32:39.378Z,95413.50
2023-02-13T04:33:36.038Z,95423.13
2023-02-13T04:34:32.718Z,95435.22
2023-02-13T04:35:29.343Z,95427.50
2023-02-13T04:36:26.138Z,95421.91
2023-02-13T04:37:22.762Z,95424.75
2023-02-13T04:38:19.364Z,95425.09
2023-02-13T04:39:16.043Z,95431.31
2023-02-13T04:40:12.915Z,95368.19
2023-02-13T04:41:09.554Z,95437.34
2023-02-13T04:42:06.192Z,95441.47
2023-02-13T04:43:02.872Z,95379.31
2023-02-13T04:43:59.472Z,95434.03
2023-02-13T04:44:56.105Z,95435.16
2023-02-13T04:45:52.751Z,95439.56
2023-02-13T04:46:49.429Z,95410.56
2023-02-13T04:47:53.830Z,95438.41
2023-02-13T04:48:50.446Z,95438.56
2023-02-13T04:49:47.109Z,95435.44
2023-02-13T04:50:44.116Z,95437.69
2023-02-13T04:51:41.353Z,95435.44
2023-02-13T04:52:38.034Z,95438.97
2023-02-13T04:53:34.586Z,95445.09
2023-02-13T04:54:31.186Z,95438.28
2023-02-13T04:55:28.792Z,95434.72
2023-02-13T04:56:25.426Z,95435.09
2023-02-13T04:57:22.063Z,95439.19
2023-02-13T04:58:18.713Z,95437.84
2023-02-13T04:59:15.389Z,95436.97
2023-02-13T05:00:12.610Z,95434.31
2023-02-13T05:01:15.965Z,95418.72
2023-02-13T05:02:12.691Z,95422.69
2023-02-13T05:03:11.614Z,95444.81
2023-02-13T05:04:08.312Z,95373.88
2023-02-13T05:05:05.193Z,95401.31
2023-02-13T05:06:01.770Z,95447.31
2023-02-13T05:06:58.483Z,95415.72
2023-02-13T05:07:55.073Z,95439.19
2023-02-13T05:08:51.647Z,95438.84
2023-02-13T05:09:48.377Z,95438.06
2023-02-13T05:10:44.972Z,95413.97
2023-02-13T05:11:41.648Z,95441.38
2023-02-13T05:12:38.633Z,95439.72
2023-02-13T05:13:35.372Z,95436.50
2023-02-13T05:14:31.924Z,95441.97
2023-02-13T05:15:29.111Z,95445.72
2023-02-13T05:16:25.864Z,95448.22
2023-02-13T05:17:22.512Z,95416.25
2023-02-13T05:18:20.082Z,95447.53
2023-02-13T05:19:17.283Z,95450.19
2023-02-13T05:20:14.490Z,95454.41
2023-02-13T05:21:29.748Z,95449.75
2023-02-13T05:22:45.256Z,95452.06
2023-02-13T05:23:41.932Z,95419.63
2023-02-13T05:24:38.597Z,95443.94
2023-02-13T05:25:37.542Z,95447.13
2023-02-13T05:26:34.127Z,95453.06
2023-02-13T05:27:30.740Z,95443.88
2023-02-13T05:28:45.890Z,95452.34
2023-02-13T05:29:42.456Z,95458.97
2023-02-13T05:30:40.211Z,95455.50
2023-02-13T05:31:36.959Z,95453.34
2023-02-13T05:32:33.603Z,95452.59
2023-02-13T05:33:30.190Z,95454.34
2023-02-13T05:34:28.180Z,95461.38
2023-02-13T05:35:25.713Z,95456.63
2023-02-13T05:36:22.373Z,95456.47
2023-02-13T05:37:18.915Z,95439.59
2023-02-13T05:38:15.522Z,95454.88
2023-02-13T05:39:12.992Z,95457.81
2023-02-13T05:40:11.960Z,95427.25
2023-02-13T05:41:08.602Z,95447.66
2023-02-13T05:42:05.377Z,95467.03
2023-02-13T05:43:01.916Z,95426.25
2023-02-13T05:43:58.579Z,95471.75
2023-02-13T05:44:55.153Z,95475.59
2023-02-13T05:45:52.357Z,95482.81
2023-02-13T05:46:49.448Z,95471.16
2023-02-13T05:47:46.048Z,95469.84
2023-02-13T05:48:42.700Z,95429.94
2023-02-13T05:49:39.379Z,95468.47
2023-02-13T05:50:36.076Z,95480.41
2023-02-13T05:51:33.125Z,95483.22
2023-02-13T05:52:29.685Z,95477.00
2023-02-13T05:53:26.650Z,95404.34
2023-02-13T05:54:23.302Z,95477.31
2023-02-13T05:55:19.854Z,95476.91
2023-02-13T05:56:16.649Z,95424.25
2023-02-13T05:57:13.191Z,95478.66
2023-02-13T05:58:09.771Z,95467.78
2023-02-13T05:59:06.832Z,95475.97
2023-02-13T06:00:04.766Z,95483.53
2023-02-13T06:01:01.679Z,95480.38
2023-02-13T06:01:58.298Z,95485.16
2023-02-13T06:02:54.906Z,95485.03
2023-02-13T06:03:52.030Z,95464.81
2023-02-13T06:04:48.620Z,95486.41
2023-02-13T06:05:45.273Z,95489.09
2023-02-13T06:06:41.949Z,95491.41
2023-02-13T06:07:38.535Z,95491.66
2023-02-13T06:08:35.241Z,95474.28
2023-02-13T06:09:31.790Z,95484.38
2023-02-13T06:10:28.352Z,95443.72
2023-02-13T06:11:24.932Z,95490.53
2023-02-13T06:12:21.515Z,95490.91
2023-02-13T06:13:18.711Z,95485.91
2023-02-13T06:14:16.839Z,95491.84
2023-02-13T06:15:14.048Z,95486.88
2023-02-13T06:16:11.944Z,95491.50
2023-02-13T06:17:08.843Z,95494.09
2023-02-13T06:18:05.584Z,95491.78
2023-02-13T06:19:02.597Z,95491.78
2023-02-13T06:19:59.129Z,95495.78
2023-02-13T06:20:56.042Z,95492.94
2023-02-13T06:21:52.862Z,95488.59
2023-02-13T06:22:51.187Z,95444.97
2023-02-13T06:23:47.740Z,95424.03
2023-02-13T06:24:44.350Z,95490.28
2023-02-13T06:25:41.449Z,95493.97
2023-02-13T06:26:38.024Z,95497.88
2023-02-13T06:27:34.628Z,95388.13
2023-02-13T06:28:31.531Z,95489.47
2023-02-13T06:29:28.208Z,95411.69
2023-02-13T06:30:25.019Z,95496.72
2023-02-13T06:31:22.164Z,95499.09
2023-02-13T06:32:18.848Z,95498.63
2023-02-13T06:33:15.516Z,95498.34
2023-02-13T06:34:12.113Z,95504.50
2023-02-13T06:35:09.175Z,95435.19
2023-02-13T06:36:06.191Z,95505.34
2023-02-13T06:37:02.943Z,95505.81
2023-02-13T06:37:59.560Z,95501.53
2023-02-13T06:38:56.502Z,95490.16
2023-02-13T06:39:53.096Z,95497.13
2023-02-13T06:40:50.173Z,95502.00
2023-02-13T06:41:46.726Z,95502.09
2023-02-13T06:42:44.260Z,95500.97
2023-02-13T06:43:40.993Z,95499.03
2023-02-13T06:44:37.538Z,95491.69
2023-02-13T06:45:34.134Z,95502.72
2023-02-13T06:46:30.725Z,95502.84
2023-02-13T06:47:27.507Z,95445.94
2023-02-13T06:48:24.122Z,95446.06
2023-02-13T06:49:20.757Z,95493.41
2023-02-13T06:50:18.170Z,95474.69
2023-02-13T06:51:14.769Z,95505.72
2023-02-13T06:52:11.427Z,95473.97
2023-02-13T06:53:08.358Z,95445.31
2023-02-13T06:54:05.060Z,95465.13
2023-02-13T06:55:01.787Z,95461.00
2023-02-13T06:55:58.445Z,95515.84
2023-02-13T06:56:55.065Z,95509.25
2023-02-13T06:57:51.617Z,95499.22
2023-02-13T06:58:48.176Z,95499.66
2023-02-13T06:59:44.975Z,95513.19
2023-02-13T07:00:41.698Z,95513.22
2023-02-13T07:01:38.262Z,95509.81
2023-02-13T07:02:34.897Z,95507.72
2023-02-13T07:03:31.550Z,95501.34
2023-02-13T07:04:28.595Z,95468.50
2023-02-13T07:05:25.177Z,95499.91
2023-02-13T07:06:22.102Z,95506.25
2023-02-13T07:07:18.686Z,95485.69
2023-02-13T07:08:15.268Z,95516.50
2023-02-13T07:09:13.562Z,95521.09
2023-02-13T07:10:13.074Z,95503.22
2023-02-13T07:11:16.401Z,95515.59
2023-02-13T07:12:12.965Z,95511.22
2023-02-13T07:13:10.498Z,95453.28
2023-02-13T07:14:07.890Z,95507.00
2023-02-13T07:15:05.289Z,95460.84
2023-02-13T07:16:02.171Z,95432.09
2023-02-13T07:16:59.294Z,95512.41
2023-02-13T07:17:57.678Z,95515.38
2023-02-13T07:18:54.389Z,95514.50
2023-02-13T07:19:50.942Z,95507.78
2023-02-13T07:20:47.579Z,95522.19
2023-02-13T07:21:44.210Z,95461.16
2023-02-13T07:22:40.805Z,95511.69
2023-02-13T07:23:37.464Z,95503.00
2023-02-13T07:24:35.485Z,95435.72
2023-02-13T07:25:32.609Z,95509.38
2023-02-13T07:26:29.708Z,95506.84
2023-02-13T07:27:29.283Z,95512.38
2023-02-13T07:28:26.508Z,95516.28
2023-02-13T07:29:23.097Z,95461.31
2023-02-13T07:30:19.740Z,95505.38
2023-02-13T07:31:16.644Z,95488.31
2023-02-13T07:32:13.474Z,95508.53
2023-02-13T07:33:11.706Z,95507.13
2023-02-13T07:34:09.965Z,95507.25
2023-02-13T07:35:06.609Z,95515.56
2023-02-13T07:36:04.460Z,95508.59
2023-02-13T07:37:01.030Z,95507.50
2023-02-13T07:37:58.025Z,95497.81
2023-02-13T07:38:54.718Z,95507.00
2023-02-13T07:39:51.415Z,95510.63
2023-02-13T07:40:48.071Z,95502.88
2023-02-13T07:41:44.854Z,95518.56
2023-02-13T07:42:41.420Z,95511.25
2023-02-13T07:43:38.097Z,95501.94
2023-02-13T07:44:34.737Z,95480.16
2023-02-13T07:45:31.497Z,95501.47
2023-02-13T07:46:28.189Z,95503.63
2023-02-13T07:47:24.786Z,95494.13
2023-02-13T07:48:23.291Z,95512.66
2023-02-13T07:49:19.942Z,95511.13
2023-02-13T07:50:16.624Z,95435.91
2023-02-13T07:51:13.253Z,95510.53
2023-02-13T07:52:09.995Z,95512.06
2023-02-13T07:53:06.644Z,95510.09
2023-02-13T07:54:03.557Z,95476.75
2023-02-13T07:55:00.208Z,95511.84
2023-02-13T07:55:57.180Z,95512.16
2023-02-13T07:56:53.994Z,95513.22
2023-02-13T07:57:51.373Z,95443.22
2023-02-13T07:58:47.993Z,95507.78
2023-02-13T07:59:45.354Z,95516.28
2023-02-13T08:00:42.024Z,95497.81
2023-02-13T08:01:38.758Z,95510.53
2023-02-13T08:02:35.407Z,95511.53
2023-02-13T08:03:32.034Z,95504.88
2023-02-13T08:04:29.168Z,95510.09
2023-02-13T08:05:25.811Z,95508.91
2023-02-13T08:06:22.835Z,95503.16
2023-02-13T08:07:19.894Z,95501.31
2023-02-13T08:08:17.302Z,95498.69
2023-02-13T08:09:39.739Z,95504.38
2023-02-13T08:10:55.906Z,95494.75
2023-02-13T08:11:53.613Z,95499.91
2023-02-13T08:12:51.521Z,95501.78
2023-02-13T08:13:48.131Z,95503.06
2023-02-13T08:14:44.855Z,95498.59
2023-02-13T08:15:41.687Z,95511.06
2023-02-13T08:16:38.380Z,95483.81
2023-02-13T08:17:34.968Z,95510.28
2023-02-13T08:18:31.580Z,95497.81
2023-02-13T08:19:28.385Z,95503.28
2023-02-13T08:20:25.089Z,95500.53
2023-02-13T08:21:21.737Z,95443.59
2023-02-13T08:22:18.310Z,95495.06
2023-02-13T08:23:14.953Z,95497.19
2023-02-13T08:24:12.439Z,95452.16
2023-02-13T08:25:09.030Z,95501.50
2023-02-13T08:26:05.713Z,95502.28
2023-02-13T08:27:02.315Z,95505.75
2023-02-13T08:28:00.201Z,95507.50
2023-02-13T08:28:56.753Z,95507.25
2023-02-13T08:29:53.329Z,95502.16
2023-02-13T08:30:49.941Z,95479.22
2023-02-13T08:31:46.688Z,95503.56
2023-02-13T08:32:53.758Z,95505.16
2023-02-13T08:33:51.073Z,95492.41
2023-02-13T08:34:47.720Z,95502.75
2023-02-13T08:35:44.324Z,95505.66
2023-02-13T08:36:40.934Z,95510.50
2023-02-13T08:37:37.518Z,95515.69
2023-02-13T08:38:34.652Z,95512.72
2023-02-13T08:39:31.300Z,95512.03
2023-02-13T08:40:27.906Z,95506.59
2023-02-13T08:41:24.750Z,95502.41
2023-02-13T08:42:21.324Z,95499.00
2023-02-13T08:43:17.853Z,95503.34
2023-02-13T08:44:14.545Z,95502.22
2023-02-13T08:45:11.781Z,95499.41
2023-02-13T08:46:08.581Z,95502.81
2023-02-13T08:47:05.823Z,95478.50
2023-02-13T08:48:04.169Z,95497.50
2023-02-13T08:49:00.886Z,95474.44
2023-02-13T08:49:57.565Z,95505.25
2023-02-13T08:50:54.227Z,95500.00
2023-02-13T08:51:51.011Z,95504.03
2023-02-13T08:52:47.608Z,95473.00
2023-02-13T08:53:44.285Z,95466.66
2023-02-13T08:54:40.870Z,95503.50
2023-02-13T08:55:37.472Z,95506.16
2023-02-13T08:56:35.108Z,95467.59
2023-02-13T08:57:31.767Z,95503.38
2023-02-13T08:58:28.363Z,95494.00
2023-02-13T08:59:24.990Z,95498.31
2023-02-13T09:00:21.965Z,95485.94
2023-02-13T09:01:18.876Z,95494.91
2023-02-13T09:02:15.546Z,95495.09
2023-02-13T09:03:12.394Z,95496.19
2023-02-13T09:04:09.127Z,95486.19
2023-02-13T09:05:06.110Z,95490.69
2023-02-13T09:06:03.739Z,95469.50
2023-02-13T09:07:00.335Z,95504.16
2023-02-13T09:07:59.278Z,95505.47
2023-02-13T09:08:55.909Z,95498.84
2023-02-13T09:09:52.557Z,95443.53
2023-02-13T09:10:56.584Z,95485.13
2023-02-13T09:11:56.241Z,95491.88
2023-02-13T09:12:53.658Z,95504.06
2023-02-13T09:13:53.544Z,95502.28
2023-02-13T09:14:50.372Z,95499.97
2023-02-13T09:15:47.008Z,95461.88
2023-02-13T09:16:43.675Z,95503.88
2023-02-13T09:17:40.269Z,95504.66
2023-02-13T09:18:37.030Z,95496.19
2023-02-13T09:19:33.743Z,95503.72
2023-02-13T09:20:30.432Z,95508.03
2023-02-13T09:21:27.097Z,95500.91
2023-02-13T09:22:23.730Z,95500.34
2023-02-13T09:23:20.311Z,95500.06
2023-02-13T09:24:16.880Z,95503.75
2023-02-13T09:25:13.491Z,95439.50
2023-02-13T09:26:14.801Z,95505.00
2023-02-13T09:27:11.441Z,95487.19
2023-02-13T09:28:08.102Z,95461.97
2023-02-13T09:29:04.782Z,95499.97
2023-02-13T09:30:01.978Z,95497.75
2023-02-13T09:30:59.655Z,95448.91
2023-02-13T09:31:56.443Z,95496.00
2023-02-13T09:32:54.352Z,95475.47
2023-02-13T09:33:51.067Z,95496.09
2023-02-13T09:34:47.611Z,95499.38
2023-02-13T09:35:44.581Z,95455.38
2023-02-13T09:36:41.150Z,95502.00
2023-02-13T09:37:37.748Z,95499.84
2023-02-13T09:38:34.955Z,95503.19
2023-02-13T09:39:31.525Z,95498.38
2023-02-13T09:41:00.725Z,95497.19
2023-02-13T09:41:58.698Z,95432.81
2023-02-13T09:43:22.706Z,95454.84
2023-02-13T09:44:34.394Z,95496.88
2023-02-13T09:45:31.177Z,95488.91
2023-02-13T09:46:36.450Z,95487.47
2023-02-13T09:47:51.264Z,95487.91
2023-02-13T09:48:51.756Z,95481.69
2023-02-13T09:49:52.962Z,95492.06
2023-02-13T09:50:49.745Z,95430.13
2023-02-13T09:51:57.348Z,95448.06
2023-02-13T09:52:58.599Z,95476.03
2023-02-13T09:54:02.656Z,95467.31
2023-02-13T09:54:59.315Z,95469.97
2023-02-13T09:56:05.870Z,95405.34
2023-02-13T09:57:25.036Z,95460.69
2023-02-13T09:58:40.706Z,95469.06
2023-02-13T09:59:53.516Z,95471.97
2023-02-13T10:00:54.480Z,95461.53
2023-02-13T10:01:53.114Z,95449.41
2023-02-13T10:02:59.404Z,95460.53
2023-02-13T10:03:55.997Z,95466.94
2023-02-13T10:05:37.372Z,95454.84
2023-02-13T10:06:50.480Z,95461.66
2023-02-13T10:07:56.853Z,95457.59
2023-02-13T10:09:07.689Z,95436.41
2023-02-13T10:10:14.115Z,95454.88
2023-02-13T10:11:36.354Z,95449.97
2023-02-13T10:12:49.127Z,95388.66
2023-02-13T10:14:02.882Z,95455.84
2023-02-13T10:15:14.577Z,95444.63
2023-02-13T10:16:22.405Z,95465.19
2023-02-13T10:17:23.300Z,95441.50
2023-02-13T10:18:25.180Z,95455.09
2023-02-13T10:19:43.469Z,95440.09
2023-02-13T10:20:53.264Z,95444.56
2023-02-13T10:21:56.227Z,95438.78
2023-02-13T10:23:03.190Z,95428.75
2023-02-13T10:24:02.000Z,95431.91
2023-02-13T10:25:01.339Z,95433.28
2023-02-13T10:26:01.145Z,95429.91
2023-02-13T10:27:02.278Z,95436.53
2023-02-13T10:28:06.726Z,95414.31
2023-02-13T10:29:28.153Z,95436.00
2023-02-13T10:30:30.756Z,95432.28
2023-02-13T10:31:27.470Z,95430.00
2023-02-13T10:32:30.300Z,95424.00
2023-02-13T10:33:34.464Z,95420.91
2023-02-13T10:34:38.727Z,95399.22
2023-02-13T10:35:35.377Z,95426.22
2023-02-13T10:36:36.449Z,95368.63
2023-02-13T10:37:33.105Z,95415.84
2023-02-13T10:38:33.203Z,95418.28
2023-02-13T10:39:31.359Z,95410.06
2023-02-13T10:40:38.163Z,95385.47
2023-02-13T10:41:57.867Z,95411.59
2023-02-13T10:43:09.497Z,95403.22
2023-02-13T10:44:27.242Z,95407.59
2023-02-13T10:46:04.398Z,95409.28
2023-02-13T10:47:10.795Z,95413.78
2023-02-13T10:48:37.532Z,95399.78
2023-02-13T10:49:46.627Z,95397.94
2023-02-13T10:51:02.473Z,95361.75
2023-02-13T10:52:04.850Z,95402.94
2023-02-13T10:53:20.032Z,95403.22
2023-02-13T10:54:34.737Z,95399.78
2023-02-13T10:55:46.656Z,95397.56
2023-02-13T10:56:47.304Z,95391.19
2023-02-13T10:57:43.920Z,95395.72
2023-02-13T10:58:48.557Z,95398.66
2023-02-13T11:00:02.380Z,95388.06
2023-02-13T11:01:07.060Z,95399.19
2023-02-13T11:02:30.622Z,95366.75
2023-02-13T11:03:30.063Z,95394.22
2023-02-13T11:04:26.769Z,95386.56
2023-02-13T11:05:41.866Z,95383.56
2023-02-13T11:06:46.649Z,95385.47
2023-02-13T11:07:46.910Z,95381.16
2023-02-13T11:08:47.245Z,95374.50
2023-02-13T11:09:48.624Z,95366.88
2023-02-13T11:10:45.215Z,95377.47
2023-02-13T11:11:44.027Z,95357.28
2023-02-13T11:12:40.788Z,95329.75
2023-02-13T11:13:37.494Z,95335.59
2023-02-13T11:14:34.094Z,95351.66
2023-02-13T11:15:32.936Z,95370.72
2023-02-13T11:16:39.840Z,95370.94
2023-02-13T11:17:41.429Z,95357.28
2023-02-13T11:18:41.601Z,95365.84
2023-02-13T11:19:51.782Z,95365.69
2023-02-13T11:21:04.124Z,95325.56
2023-02-13T11:22:11.626Z,95352.47
2023-02-13T11:23:26.628Z,95358.81
2023-02-13T11:24:25.924Z,95355.16
2023-02-13T11:25:25.562Z,95356.47
2023-02-13T11:26:27.979Z,95352.50
2023-02-13T11:27:27.719Z,95346.91
2023-02-13T11:28:24.872Z,95349.28
2023-02-13T11:29:28.300Z,95344.75
2023-02-13T11:30:38.535Z,95337.19
2023-02-13T11:31:37.341Z,95339.78
2023-02-13T11:32:35.395Z,95340.09
2023-02-13T11:33:32.142Z,95336.56
2023-02-13T11:34:31.259Z,95330.22
2023-02-13T11:35:33.528Z,95333.53
2023-02-13T11:36:32.890Z,95328.75
2023-02-13T11:37:31.675Z,95324.03
2023-02-13T11:38:28.376Z,95323.03
2023-02-13T11:39:26.977Z,95316.84
2023-02-13T11:40:31.845Z,95320.72
2023-02-13T11:41:30.227Z,95263.50
2023-02-13T11:42:33.979Z,95292.66
2023-02-13T11:43:36.816Z,95310.59
2023-02-13T11:44:33.801Z,95312.66
2023-02-13T11:45:30.547Z,95311.47
2023-02-13T11:46:30.630Z,95309.00
2023-02-13T11:47:35.728Z,95311.22
2023-02-13T11:48:32.560Z,95301.81
2023-02-13T11:49:36.116Z,95312.00
2023-02-13T11:50:37.842Z,95271.50
2023-02-13T11:51:52.997Z,95254.81
2023-02-13T11:53:00.295Z,95297.00
2023-02-13T11:54:01.038Z,95298.44
2023-02-13T11:55:23.940Z,95294.59
2023-02-13T11:56:20.583Z,95295.41
2023-02-13T11:57:23.374Z,95293.41
2023-02-13T11:58:26.062Z,95292.00
2023-02-13T11:59:24.826Z,95293.13